sensor_id;sensor_type;location;lat;lon;timestamp;pressure;altitude;pressure_sealevel;temperature;humidity
80323;BME280;69636;52.372;13.610;2023-08-17T00:02:07;101760.72;;;20.15;84.15
80323;BME280;69636;52.372;13.610;2023-08-17T00:04:35;101758.41;;;20.33;83.00
80323;BME280;69636;52.372;13.610;2023-08-17T00:07:04;101761.84;;;20.20;83.58
80323;BME280;69636;52.372;13.610;2023-08-17T00:09:31;101764.56;;;20.06;84.46
80323;BME280;69636;52.372;13.610;2023-08-17T00:11:59;101769.94;;;19.84;85.45
80323;BME280;69636;52.372;13.610;2023-08-17T00:14:26;101761.00;;;19.84;85.67
80323;BME280;69636;52.372;13.610;2023-08-17T00:16:53;101757.88;;;20.02;84.40
80323;BME280;69636;52.372;13.610;2023-08-17T00:19:21;101761.19;;;20.18;83.19
80323;BME280;69636;52.372;13.610;2023-08-17T00:21:48;101769.00;;;19.92;84.75
80323;BME280;69636;52.372;13.610;2023-08-17T00:24:17;101761.94;;;19.91;84.29
80323;BME280;69636;52.372;13.610;2023-08-17T00:26:44;101751.47;;;20.03;84.22
80323;BME280;69636;52.372;13.610;2023-08-17T00:29:12;101748.09;;;20.15;83.34
80323;BME280;69636;52.372;13.610;2023-08-17T00:31:39;101736.66;;;19.92;84.37
80323;BME280;69636;52.372;13.610;2023-08-17T00:34:06;101731.25;;;19.92;84.03
80323;BME280;69636;52.372;13.610;2023-08-17T00:36:34;101722.25;;;19.85;84.45
80323;BME280;69636;52.372;13.610;2023-08-17T00:39:01;101732.41;;;19.83;84.68
80323;BME280;69636;52.372;13.610;2023-08-17T00:41:30;101732.16;;;19.63;85.70
80323;BME280;69636;52.372;13.610;2023-08-17T00:43:59;101730.25;;;19.78;84.55
80323;BME280;69636;52.372;13.610;2023-08-17T00:46:27;101741.63;;;19.74;84.58
80323;BME280;69636;52.372;13.610;2023-08-17T00:48:54;101744.31;;;19.74;84.64
80323;BME280;69636;52.372;13.610;2023-08-17T00:51:22;101752.19;;;19.75;84.75
80323;BME280;69636;52.372;13.610;2023-08-17T00:53:50;101751.13;;;19.55;85.63
80323;BME280;69636;52.372;13.610;2023-08-17T00:56:18;101756.13;;;19.58;85.88
80323;BME280;69636;52.372;13.610;2023-08-17T00:58:47;101753.53;;;19.64;85.25
80323;BME280;69636;52.372;13.610;2023-08-17T01:01:16;101746.19;;;19.58;85.72
80323;BME280;69636;52.372;13.610;2023-08-17T01:03:43;101751.03;;;19.48;86.40
80323;BME280;69636;52.372;13.610;2023-08-17T01:06:10;101753.91;;;19.47;86.33
80323;BME280;69636;52.372;13.610;2023-08-17T01:08:38;101755.19;;;19.65;85.53
80323;BME280;69636;52.372;13.610;2023-08-17T01:11:08;101748.25;;;19.56;85.90
80323;BME280;69636;52.372;13.610;2023-08-17T01:13:46;101738.97;;;19.44;86.49
80323;BME280;69636;52.372;13.610;2023-08-17T01:16:22;101726.50;;;19.43;86.97
80323;BME280;69636;52.372;13.610;2023-08-17T01:18:51;101731.16;;;19.64;85.30
80323;BME280;69636;52.372;13.610;2023-08-17T01:21:21;101723.72;;;19.51;85.81
80323;BME280;69636;52.372;13.610;2023-08-17T01:23:51;101724.47;;;19.60;85.46
80323;BME280;69636;52.372;13.610;2023-08-17T01:26:19;101723.25;;;19.48;85.55
80323;BME280;69636;52.372;13.610;2023-08-17T01:28:47;101713.69;;;19.45;86.16
80323;BME280;69636;52.372;13.610;2023-08-17T01:31:19;101715.94;;;19.27;87.54
80323;BME280;69636;52.372;13.610;2023-08-17T01:33:54;101714.63;;;19.23;87.76
80323;BME280;69636;52.372;13.610;2023-08-17T01:36:22;101715.47;;;19.23;87.13
80323;BME280;69636;52.372;13.610;2023-08-17T01:38:54;101713.69;;;19.30;86.82
80323;BME280;69636;52.372;13.610;2023-08-17T01:41:23;101710.81;;;19.47;85.85
80323;BME280;69636;52.372;13.610;2023-08-17T01:43:52;101721.69;;;19.24;86.92
80323;BME280;69636;52.372;13.610;2023-08-17T01:46:21;101719.75;;;19.03;88.16
80323;BME280;69636;52.372;13.610;2023-08-17T01:48:48;101730.31;;;18.90;89.04
80323;BME280;69636;52.372;13.610;2023-08-17T01:51:17;101730.69;;;19.02;88.69
80323;BME280;69636;52.372;13.610;2023-08-17T01:53:46;101722.25;;;19.05;88.11
80323;BME280;69636;52.372;13.610;2023-08-17T01:56:15;101716.59;;;19.14;87.18
80323;BME280;69636;52.372;13.610;2023-08-17T01:58:42;101720.13;;;19.15;87.31
80323;BME280;69636;52.372;13.610;2023-08-17T02:01:11;101727.72;;;19.26;86.52
80323;BME280;69636;52.372;13.610;2023-08-17T02:03:38;101727.25;;;19.08;87.76
80323;BME280;69636;52.372;13.610;2023-08-17T02:06:06;101724.75;;;19.06;87.66
80323;BME280;69636;52.372;13.610;2023-08-17T02:08:33;101729.50;;;18.89;87.98
80323;BME280;69636;52.372;13.610;2023-08-17T02:11:01;101727.75;;;18.96;87.77
80323;BME280;69636;52.372;13.610;2023-08-17T02:13:29;101736.91;;;18.87;88.14
80323;BME280;69636;52.372;13.610;2023-08-17T02:15:57;101730.22;;;18.83;88.11
80323;BME280;69636;52.372;13.610;2023-08-17T02:18:24;101729.09;;;18.78;88.26
80323;BME280;69636;52.372;13.610;2023-08-17T02:20:51;101722.88;;;18.77;88.64
80323;BME280;69636;52.372;13.610;2023-08-17T02:23:18;101722.88;;;18.77;88.68
80323;BME280;69636;52.372;13.610;2023-08-17T02:25:46;101721.84;;;18.78;88.43
80323;BME280;69636;52.372;13.610;2023-08-17T02:28:13;101714.44;;;18.66;89.39
80323;BME280;69636;52.372;13.610;2023-08-17T02:30:45;101716.97;;;18.59;89.35
80323;BME280;69636;52.372;13.610;2023-08-17T02:33:13;101714.31;;;18.74;88.64
80323;BME280;69636;52.372;13.610;2023-08-17T02:35:40;101715.31;;;18.58;89.50
80323;BME280;69636;52.372;13.610;2023-08-17T02:38:08;101716.66;;;18.62;89.42
80323;BME280;69636;52.372;13.610;2023-08-17T02:40:35;101718.69;;;18.75;88.39
80323;BME280;69636;52.372;13.610;2023-08-17T02:43:03;101712.63;;;18.58;89.42
80323;BME280;69636;52.372;13.610;2023-08-17T02:45:30;101717.69;;;18.53;88.71
80323;BME280;69636;52.372;13.610;2023-08-17T02:47:58;101705.63;;;18.49;89.47
80323;BME280;69636;52.372;13.610;2023-08-17T02:50:26;101696.84;;;18.55;88.38
80323;BME280;69636;52.372;13.610;2023-08-17T02:52:53;101700.38;;;18.55;88.51
80323;BME280;69636;52.372;13.610;2023-08-17T02:55:21;101698.69;;;18.54;88.59
80323;BME280;69636;52.372;13.610;2023-08-17T02:57:48;101696.84;;;18.55;88.04
80323;BME280;69636;52.372;13.610;2023-08-17T03:00:15;101701.25;;;18.48;88.76
80323;BME280;69636;52.372;13.610;2023-08-17T03:02:43;101697.84;;;18.54;87.80
80323;BME280;69636;52.372;13.610;2023-08-17T03:05:11;101699.16;;;18.58;87.58
80323;BME280;69636;52.372;13.610;2023-08-17T03:07:39;101690.81;;;18.53;88.15
80323;BME280;69636;52.372;13.610;2023-08-17T03:10:07;101689.13;;;18.52;87.78
80323;BME280;69636;52.372;13.610;2023-08-17T03:12:34;101693.09;;;18.64;87.21
80323;BME280;69636;52.372;13.610;2023-08-17T03:15:01;101692.84;;;18.51;87.65
80323;BME280;69636;52.372;13.610;2023-08-17T03:17:29;101684.13;;;18.49;87.95
80323;BME280;69636;52.372;13.610;2023-08-17T03:19:56;101693.50;;;18.53;87.31
80323;BME280;69636;52.372;13.610;2023-08-17T03:22:25;101696.06;;;18.46;87.50
80323;BME280;69636;52.372;13.610;2023-08-17T03:24:55;101688.47;;;18.50;87.00
80323;BME280;69636;52.372;13.610;2023-08-17T03:27:22;101691.72;;;18.68;86.49
80323;BME280;69636;52.372;13.610;2023-08-17T03:29:50;101694.78;;;18.42;87.96
80323;BME280;69636;52.372;13.610;2023-08-17T03:32:17;101692.44;;;18.62;86.61
80323;BME280;69636;52.372;13.610;2023-08-17T03:34:44;101688.09;;;18.61;86.33
80323;BME280;69636;52.372;13.610;2023-08-17T03:37:12;101689.50;;;18.49;86.94
80323;BME280;69636;52.372;13.610;2023-08-17T03:39:40;101692.75;;;18.44;87.48
80323;BME280;69636;52.372;13.610;2023-08-17T03:42:08;101692.75;;;18.44;87.09
80323;BME280;69636;52.372;13.610;2023-08-17T03:44:35;101691.16;;;18.50;86.54
80323;BME280;69636;52.372;13.610;2023-08-17T03:47:02;101687.47;;;18.51;86.32
80323;BME280;69636;52.372;13.610;2023-08-17T03:49:30;101688.09;;;18.61;86.20
80323;BME280;69636;52.372;13.610;2023-08-17T03:51:57;101689.50;;;18.49;86.73
80323;BME280;69636;52.372;13.610;2023-08-17T03:54:24;101693.38;;;18.46;86.69
80323;BME280;69636;52.372;13.610;2023-08-17T03:56:53;101683.75;;;18.52;87.00
80323;BME280;69636;52.372;13.610;2023-08-17T03:59:20;101685.44;;;18.53;86.28
80323;BME280;69636;52.372;13.610;2023-08-17T04:01:47;101682.34;;;18.64;85.38
80323;BME280;69636;52.372;13.610;2023-08-17T04:04:15;101683.00;;;18.66;85.81
80323;BME280;69636;52.372;13.610;2023-08-17T04:06:42;101679.31;;;18.59;85.88
80323;BME280;69636;52.372;13.610;2023-08-17T04:09:09;101683.41;;;18.55;86.28
80323;BME280;69636;52.372;13.610;2023-08-17T04:11:36;101681.63;;;18.70;85.06
80323;BME280;69636;52.372;13.610;2023-08-17T04:14:05;101678.34;;;18.75;84.53
80323;BME280;69636;52.372;13.610;2023-08-17T04:16:33;101686.03;;;18.63;85.54
80323;BME280;69636;52.372;13.610;2023-08-17T04:19:00;101680.84;;;18.76;84.34
80323;BME280;69636;52.372;13.610;2023-08-17T04:21:28;101685.22;;;18.62;85.49
80323;BME280;69636;52.372;13.610;2023-08-17T04:23:56;101693.66;;;18.74;84.41
80323;BME280;69636;52.372;13.610;2023-08-17T04:26:23;101691.72;;;18.68;84.98
80323;BME280;69636;52.372;13.610;2023-08-17T04:28:50;101682.53;;;18.77;84.21
80323;BME280;69636;52.372;13.610;2023-08-17T04:31:19;101684.47;;;18.83;84.06
80323;BME280;69636;52.372;13.610;2023-08-17T04:33:47;101694.13;;;18.78;84.33
80323;BME280;69636;52.372;13.610;2023-08-17T04:36:14;101682.38;;;18.93;83.36
80323;BME280;69636;52.372;13.610;2023-08-17T04:38:41;101695.78;;;18.79;83.68
80323;BME280;69636;52.372;13.610;2023-08-17T04:41:08;101686.16;;;18.84;84.15
80323;BME280;69636;52.372;13.610;2023-08-17T04:43:36;101682.72;;;18.90;83.60
80323;BME280;69636;52.372;13.610;2023-08-17T04:46:03;101683.91;;;19.03;82.71
80323;BME280;69636;52.372;13.610;2023-08-17T04:48:32;101692.38;;;19.14;82.20
80323;BME280;69636;52.372;13.610;2023-08-17T04:50:59;101695.53;;;19.18;82.11
80323;BME280;69636;52.372;13.610;2023-08-17T04:53:27;101700.53;;;19.21;82.34
80323;BME280;69636;52.372;13.610;2023-08-17T04:55:55;101706.81;;;19.28;82.06
80323;BME280;69636;52.372;13.610;2023-08-17T04:58:22;101707.09;;;19.33;81.69
80323;BME280;69636;52.372;13.610;2023-08-17T05:00:50;101711.84;;;19.31;81.72
80323;BME280;69636;52.372;13.610;2023-08-17T05:03:17;101704.97;;;19.43;81.28
80323;BME280;69636;52.372;13.610;2023-08-17T05:06:00;101704.88;;;19.37;80.97
80323;BME280;69636;52.372;13.610;2023-08-17T05:08:27;101711.56;;;19.41;80.98
80323;BME280;69636;52.372;13.610;2023-08-17T05:10:55;101699.78;;;19.42;81.54
80323;BME280;69636;52.372;13.610;2023-08-17T05:13:22;101702.47;;;19.42;81.95
80323;BME280;69636;52.372;13.610;2023-08-17T05:15:51;101701.34;;;19.36;82.19
80323;BME280;69636;52.372;13.610;2023-08-17T05:18:18;101699.59;;;19.43;82.34
80323;BME280;69636;52.372;13.610;2023-08-17T05:20:45;101699.22;;;19.46;82.11
80323;BME280;69636;52.372;13.610;2023-08-17T05:23:15;101690.47;;;19.44;81.80
80323;BME280;69636;52.372;13.610;2023-08-17T05:25:46;101692.16;;;19.45;82.18
80323;BME280;69636;52.372;13.610;2023-08-17T05:28:13;101686.22;;;19.35;82.26
80323;BME280;69636;52.372;13.610;2023-08-17T05:30:40;101679.41;;;19.69;80.57
80323;BME280;69636;52.372;13.610;2023-08-17T05:33:08;101691.06;;;19.76;80.21
80323;BME280;69636;52.372;13.610;2023-08-17T05:35:35;101687.47;;;19.69;80.62
80323;BME280;69636;52.372;13.610;2023-08-17T05:38:03;101684.44;;;19.57;81.16
80323;BME280;69636;52.372;13.610;2023-08-17T05:40:32;101692.13;;;19.75;80.48
80323;BME280;69636;52.372;13.610;2023-08-17T05:42:59;101695.56;;;19.69;80.72
80323;BME280;69636;52.372;13.610;2023-08-17T05:45:27;101700.94;;;19.69;80.18
80323;BME280;69636;52.372;13.610;2023-08-17T05:47:54;101698.28;;;19.90;78.91
80323;BME280;69636;52.372;13.610;2023-08-17T05:50:21;101711.81;;;19.96;78.86
80323;BME280;69636;52.372;13.610;2023-08-17T05:52:49;101699.41;;;20.02;78.83
80323;BME280;69636;52.372;13.610;2023-08-17T05:55:16;101711.22;;;20.01;79.31
80323;BME280;69636;52.372;13.610;2023-08-17T05:57:45;101729.03;;;20.17;78.23
80323;BME280;69636;52.372;13.610;2023-08-17T06:00:13;101729.97;;;20.30;78.96
80323;BME280;69636;52.372;13.610;2023-08-17T06:02:41;101750.63;;;20.38;78.05
80323;BME280;69636;52.372;13.610;2023-08-17T06:05:09;101779.59;;;20.51;77.51
80323;BME280;69636;52.372;13.610;2023-08-17T06:07:36;101788.19;;;20.40;77.89
80323;BME280;69636;52.372;13.610;2023-08-17T06:10:04;101796.25;;;20.18;78.14
80323;BME280;69636;52.372;13.610;2023-08-17T06:12:33;101804.81;;;20.07;78.56
80323;BME280;69636;52.372;13.610;2023-08-17T06:15:05;101795.94;;;19.92;79.37
80323;BME280;69636;52.372;13.610;2023-08-17T06:17:33;101784.50;;;19.90;79.28
80323;BME280;69636;52.372;13.610;2023-08-17T06:20:00;101783.19;;;20.01;79.23
80323;BME280;69636;52.372;13.610;2023-08-17T06:22:27;101780.94;;;20.04;81.03
80323;BME280;69636;52.372;13.610;2023-08-17T06:24:55;101776.13;;;19.99;79.32
80323;BME280;69636;52.372;13.610;2023-08-17T06:27:22;101780.22;;;19.95;80.05
80323;BME280;69636;52.372;13.610;2023-08-17T06:29:50;101777.19;;;20.20;79.74
80323;BME280;69636;52.372;13.610;2023-08-17T06:32:18;101763.97;;;20.25;79.97
80323;BME280;69636;52.372;13.610;2023-08-17T06:34:45;101757.19;;;20.14;80.37
80323;BME280;69636;52.372;13.610;2023-08-17T06:37:14;101757.28;;;20.21;80.24
80323;BME280;69636;52.372;13.610;2023-08-17T06:39:41;101762.59;;;20.36;79.61
80323;BME280;69636;52.372;13.610;2023-08-17T06:42:08;101767.78;;;20.52;78.98
80323;BME280;69636;52.372;13.610;2023-08-17T06:44:36;101777.56;;;20.59;77.83
80323;BME280;69636;52.372;13.610;2023-08-17T06:47:03;101785.75;;;20.45;77.50
80323;BME280;69636;52.372;13.610;2023-08-17T06:49:32;101782.16;;;20.38;78.12
80323;BME280;69636;52.372;13.610;2023-08-17T06:51:59;101779.06;;;20.41;78.44
80323;BME280;69636;52.372;13.610;2023-08-17T06:54:27;101778.72;;;20.72;76.95
80323;BME280;69636;52.372;13.610;2023-08-17T06:56:56;101768.91;;;20.64;78.08
80323;BME280;69636;52.372;13.610;2023-08-17T06:59:26;101771.03;;;20.69;78.42
80323;BME280;69636;52.372;13.610;2023-08-17T07:01:53;101765.03;;;21.01;77.09
80323;BME280;69636;52.372;13.610;2023-08-17T07:04:21;101769.47;;;21.15;75.90
80323;BME280;69636;52.372;13.610;2023-08-17T07:06:50;101772.94;;;21.03;77.74
80323;BME280;69636;52.372;13.610;2023-08-17T07:09:17;101772.56;;;21.12;77.10
80323;BME280;69636;52.372;13.610;2023-08-17T07:11:44;101765.91;;;21.08;76.71
80323;BME280;69636;52.372;13.610;2023-08-17T07:14:12;101769.75;;;21.20;76.81
80323;BME280;69636;52.372;13.610;2023-08-17T07:16:39;101771.06;;;21.31;74.89
80323;BME280;69636;52.372;13.610;2023-08-17T07:19:09;101772.13;;;21.30;75.93
80323;BME280;69636;52.372;13.610;2023-08-17T07:21:36;101767.25;;;21.53;74.28
80323;BME280;69636;52.372;13.610;2023-08-17T07:24:13;101766.41;;;21.59;74.17
80323;BME280;69636;52.372;13.610;2023-08-17T07:26:42;101766.59;;;21.51;73.30
80323;BME280;69636;52.372;13.610;2023-08-17T07:29:09;101775.22;;;21.33;75.58
80323;BME280;69636;52.372;13.610;2023-08-17T07:31:37;101775.88;;;21.36;75.96
80323;BME280;69636;52.372;13.610;2023-08-17T07:34:07;101780.22;;;21.37;75.21
80323;BME280;69636;52.372;13.610;2023-08-17T07:36:35;101773.97;;;21.29;75.89
80323;BME280;69636;52.372;13.610;2023-08-17T07:39:03;101770.09;;;21.45;75.30
80323;BME280;69636;52.372;13.610;2023-08-17T07:41:32;101761.75;;;21.81;73.22
80323;BME280;69636;52.372;13.610;2023-08-17T07:44:01;101765.84;;;21.71;74.06
80323;BME280;69636;52.372;13.610;2023-08-17T07:46:28;101759.66;;;21.77;73.54
80323;BME280;69636;52.372;13.610;2023-08-17T07:48:56;101766.03;;;21.62;74.22
80323;BME280;69636;52.372;13.610;2023-08-17T07:51:23;101764.69;;;21.93;73.52
80323;BME280;69636;52.372;13.610;2023-08-17T07:53:50;101765.59;;;22.13;72.00
80323;BME280;69636;52.372;13.610;2023-08-17T07:56:18;101752.47;;;22.10;72.78
80323;BME280;69636;52.372;13.610;2023-08-17T07:58:46;101752.28;;;22.12;72.54
80323;BME280;69636;52.372;13.610;2023-08-17T08:01:14;101758.44;;;21.92;72.36
80323;BME280;69636;52.372;13.610;2023-08-17T08:03:41;101751.88;;;22.21;71.37
80323;BME280;69636;52.372;13.610;2023-08-17T08:06:08;101750.63;;;22.04;71.52
80323;BME280;69636;52.372;13.610;2023-08-17T08:08:36;101765.22;;;22.29;69.95
80323;BME280;69636;52.372;13.610;2023-08-17T08:11:03;101750.22;;;22.20;71.33
80323;BME280;69636;52.372;13.610;2023-08-17T08:13:30;101744.41;;;22.50;70.53
80323;BME280;69636;52.372;13.610;2023-08-17T08:15:59;101751.50;;;22.51;69.99
80323;BME280;69636;52.372;13.610;2023-08-17T08:18:26;101748.38;;;22.54;69.57
80323;BME280;69636;52.372;13.610;2023-08-17T08:20:54;101741.69;;;22.37;70.21
80323;BME280;69636;52.372;13.610;2023-08-17T08:23:21;101735.25;;;22.31;70.99
80323;BME280;69636;52.372;13.610;2023-08-17T08:25:48;101731.50;;;22.25;70.29
80323;BME280;69636;52.372;13.610;2023-08-17T08:28:16;101733.38;;;22.25;70.72
80323;BME280;69636;52.372;13.610;2023-08-17T08:30:43;101742.28;;;22.06;71.06
80323;BME280;69636;52.372;13.610;2023-08-17T08:33:12;101737.13;;;22.30;70.54
80323;BME280;69636;52.372;13.610;2023-08-17T08:35:40;101743.59;;;22.29;71.04
80323;BME280;69636;52.372;13.610;2023-08-17T08:38:07;101749.41;;;22.26;70.65
80323;BME280;69636;52.372;13.610;2023-08-17T08:40:37;101736.69;;;22.07;71.53
80323;BME280;69636;52.372;13.610;2023-08-17T08:43:04;101729.84;;;22.24;71.32
80323;BME280;69636;52.372;13.610;2023-08-17T08:45:32;101722.75;;;22.37;69.95
80323;BME280;69636;52.372;13.610;2023-08-17T08:48:01;101725.88;;;22.40;69.89
80323;BME280;69636;52.372;13.610;2023-08-17T08:50:31;101709.88;;;22.52;69.38
80323;BME280;69636;52.372;13.610;2023-08-17T08:53:00;101717.53;;;22.68;70.64
80323;BME280;69636;52.372;13.610;2023-08-17T08:55:29;101720.03;;;23.02;69.67
80323;BME280;69636;52.372;13.610;2023-08-17T08:57:58;101708.53;;;23.14;69.09
80323;BME280;69636;52.372;13.610;2023-08-17T09:00:26;101698.19;;;22.64;71.80
80323;BME280;69636;52.372;13.610;2023-08-17T09:02:53;101700.28;;;22.49;71.64
80323;BME280;69636;52.372;13.610;2023-08-17T09:05:21;101698.41;;;22.37;71.71
80323;BME280;69636;52.372;13.610;2023-08-17T09:07:51;101694.66;;;22.24;72.13
80323;BME280;69636;52.372;13.610;2023-08-17T09:10:19;101689.44;;;22.16;72.81
80323;BME280;69636;52.372;13.610;2023-08-17T09:12:46;101692.72;;;21.92;74.21
80323;BME280;69636;52.372;13.610;2023-08-17T09:15:15;101691.09;;;22.11;73.44
80323;BME280;69636;52.372;13.610;2023-08-17T09:17:43;101694.00;;;22.09;72.93
80323;BME280;69636;52.372;13.610;2023-08-17T09:20:11;101698.38;;;22.10;73.52
80323;BME280;69636;52.372;13.610;2023-08-17T09:22:41;101697.78;;;22.21;73.97
80323;BME280;69636;52.372;13.610;2023-08-17T09:25:12;101696.13;;;22.20;74.29
80323;BME280;69636;52.372;13.610;2023-08-17T09:27:48;101695.91;;;22.22;73.68
80323;BME280;69636;52.372;13.610;2023-08-17T09:30:15;101691.16;;;22.30;74.71
80323;BME280;69636;52.372;13.610;2023-08-17T09:32:47;101694.47;;;22.32;74.90
80323;BME280;69636;52.372;13.610;2023-08-17T09:35:15;101680.09;;;22.39;74.61
80323;BME280;69636;52.372;13.610;2023-08-17T09:37:42;101678.44;;;22.57;74.02
80323;BME280;69636;52.372;13.610;2023-08-17T09:40:11;101672.34;;;22.75;72.28
80323;BME280;69636;52.372;13.610;2023-08-17T09:42:39;101664.22;;;23.01;72.20
80323;BME280;69636;52.372;13.610;2023-08-17T09:45:10;101667.09;;;23.64;69.40
80323;BME280;69636;52.372;13.610;2023-08-17T09:47:37;101664.09;;;23.73;69.87
80323;BME280;69636;52.372;13.610;2023-08-17T09:50:05;101661.28;;;23.48;70.66
80323;BME280;69636;52.372;13.610;2023-08-17T09:52:38;101669.22;;;23.56;70.22
80323;BME280;69636;52.372;13.610;2023-08-17T09:55:07;101660.47;;;23.47;71.39
80323;BME280;69636;52.372;13.610;2023-08-17T09:57:38;101660.97;;;23.31;72.08
80323;BME280;69636;52.372;13.610;2023-08-17T10:00:08;101656.13;;;23.40;72.32
80323;BME280;69636;52.372;13.610;2023-08-17T10:02:35;101654.28;;;23.33;72.54
80323;BME280;69636;52.372;13.610;2023-08-17T10:05:04;101658.25;;;23.31;73.00
80323;BME280;69636;52.372;13.610;2023-08-17T10:07:33;101656.34;;;23.38;72.64
80323;BME280;69636;52.372;13.610;2023-08-17T10:10:04;101663.06;;;23.29;72.63
80323;BME280;69636;52.372;13.610;2023-08-17T10:12:37;101649.34;;;23.17;73.72
80323;BME280;69636;52.372;13.610;2023-08-17T10:15:11;101655.81;;;23.16;74.10
80323;BME280;69636;52.372;13.610;2023-08-17T10:17:53;101653.53;;;23.13;74.44
80323;BME280;69636;52.372;13.610;2023-08-17T10:20:23;101652.09;;;23.11;74.98
80323;BME280;69636;52.372;13.610;2023-08-17T10:22:53;101655.03;;;23.02;75.86
80323;BME280;69636;52.372;13.610;2023-08-17T10:25:21;101653.88;;;23.37;74.47
80323;BME280;69636;52.372;13.610;2023-08-17T10:27:52;101648.84;;;23.78;73.00
80323;BME280;69636;52.372;13.610;2023-08-17T10:30:26;101646.94;;;24.10;71.47
80323;BME280;69636;52.372;13.610;2023-08-17T10:32:54;101646.09;;;24.41;70.96
80323;BME280;69636;52.372;13.610;2023-08-17T10:35:22;101654.19;;;24.66;70.27
80323;BME280;69636;52.372;13.610;2023-08-17T10:37:50;101645.16;;;24.90;67.47
80323;BME280;69636;52.372;13.610;2023-08-17T10:40:25;101644.69;;;25.30;67.34
80323;BME280;69636;52.372;13.610;2023-08-17T10:42:55;101646.44;;;25.54;68.00
80323;BME280;69636;52.372;13.610;2023-08-17T10:45:27;101648.09;;;25.55;66.00
80323;BME280;69636;52.372;13.610;2023-08-17T10:48:24;101646.53;;;25.18;66.99
80323;BME280;69636;52.372;13.610;2023-08-17T10:51:04;101645.75;;;25.29;66.77
80323;BME280;69636;52.372;13.610;2023-08-17T10:53:35;101640.19;;;25.06;68.67
80323;BME280;69636;52.372;13.610;2023-08-17T10:56:06;101640.34;;;25.11;69.54
80323;BME280;69636;52.372;13.610;2023-08-17T10:58:35;101641.84;;;25.07;68.96
80323;BME280;69636;52.372;13.610;2023-08-17T11:01:03;101633.38;;;25.33;67.83
80323;BME280;69636;52.372;13.610;2023-08-17T11:03:31;101635.53;;;25.43;67.69
80323;BME280;69636;52.372;13.610;2023-08-17T11:05:58;101636.50;;;25.48;68.19
80323;BME280;69636;52.372;13.610;2023-08-17T11:08:51;101635.47;;;25.61;67.67
80323;BME280;69636;52.372;13.610;2023-08-17T11:11:20;101638.72;;;25.40;67.88
80323;BME280;69636;52.372;13.610;2023-08-17T11:16:23;101641.28;;;25.34;68.41
80323;BME280;69636;52.372;13.610;2023-08-17T11:18:51;101633.59;;;25.91;66.80
80323;BME280;69636;52.372;13.610;2023-08-17T11:21:19;101636.41;;;26.50;65.20
80323;BME280;69636;52.372;13.610;2023-08-17T11:23:47;101621.81;;;26.32;65.07
80323;BME280;69636;52.372;13.610;2023-08-17T11:26:15;101632.53;;;25.92;65.38
80323;BME280;69636;52.372;13.610;2023-08-17T11:28:42;101628.03;;;25.56;67.32
80323;BME280;69636;52.372;13.610;2023-08-17T11:31:12;101635.78;;;25.41;67.66
80323;BME280;69636;52.372;13.610;2023-08-17T11:33:43;101628.94;;;25.50;68.92
80323;BME280;69636;52.372;13.610;2023-08-17T11:36:11;101638.50;;;25.23;69.12
80323;BME280;69636;52.372;13.610;2023-08-17T11:38:39;101637.44;;;25.42;68.90
80323;BME280;69636;52.372;13.610;2023-08-17T11:41:07;101627.97;;;25.63;67.20
80323;BME280;69636;52.372;13.610;2023-08-17T11:43:35;101626.88;;;25.94;67.19
80323;BME280;69636;52.372;13.610;2023-08-17T11:46:04;101622.78;;;26.50;65.55
80323;BME280;69636;52.372;13.610;2023-08-17T11:48:31;101623.91;;;26.77;64.34
80323;BME280;69636;52.372;13.610;2023-08-17T11:51:03;101615.97;;;26.87;63.25
80323;BME280;69636;52.372;13.610;2023-08-17T11:53:33;101623.41;;;27.03;64.14
80323;BME280;69636;52.372;13.610;2023-08-17T11:56:01;101629.59;;;26.87;65.96
80323;BME280;69636;52.372;13.610;2023-08-17T11:58:40;101623.66;;;26.90;63.46
80323;BME280;69636;52.372;13.610;2023-08-17T12:01:09;101628.84;;;27.03;62.48
80323;BME280;69636;52.372;13.610;2023-08-17T12:03:37;101623.34;;;27.27;62.52
80323;BME280;69636;52.372;13.610;2023-08-17T12:06:07;101621.94;;;27.24;62.33
80323;BME280;69636;52.372;13.610;2023-08-17T12:08:35;101625.31;;;27.03;61.42
80323;BME280;69636;52.372;13.610;2023-08-17T12:11:03;101617.03;;;26.86;62.67
80323;BME280;69636;52.372;13.610;2023-08-17T12:13:32;101616.41;;;27.08;63.30
80323;BME280;69636;52.372;13.610;2023-08-17T12:15:59;101619.31;;;27.58;61.02
80323;BME280;69636;52.372;13.610;2023-08-17T12:18:27;101619.63;;;27.33;61.92
80323;BME280;69636;52.372;13.610;2023-08-17T12:20:55;101607.94;;;27.78;59.70
80323;BME280;69636;52.372;13.610;2023-08-17T12:23:24;101607.28;;;27.70;61.29
80323;BME280;69636;52.372;13.610;2023-08-17T12:25:54;101603.59;;;28.27;58.36
80323;BME280;69636;52.372;13.610;2023-08-17T12:28:22;101604.16;;;29.11;56.21
80323;BME280;69636;52.372;13.610;2023-08-17T12:30:57;101602.53;;;29.59;54.84
80323;BME280;69636;52.372;13.610;2023-08-17T12:33:25;101600.06;;;29.62;54.70
80323;BME280;69636;52.372;13.610;2023-08-17T12:35:52;101603.38;;;30.28;53.89
80323;BME280;69636;52.372;13.610;2023-08-17T12:38:23;101595.31;;;30.54;52.61
80323;BME280;69636;52.372;13.610;2023-08-17T12:40:52;101599.91;;;30.48;51.59
80323;BME280;69636;52.372;13.610;2023-08-17T12:43:20;101592.22;;;30.45;52.02
80323;BME280;69636;52.372;13.610;2023-08-17T12:45:49;101590.69;;;30.17;51.95
80323;BME280;69636;52.372;13.610;2023-08-17T12:48:17;101589.19;;;29.67;54.84
80323;BME280;69636;52.372;13.610;2023-08-17T12:50:45;101582.81;;;29.94;52.98